YR3TG LFBD-LIPH
Flight info
| Callsign | YR3TG |
|---|---|
| Flight time | N/A |
| Altitude | 33000 |
| Route | OBLOC DCT SECHE DCT NARAK/N0455F340 DCT DITEV DCT MEN DCT NINUN DCT LATAM/N0444F380 DCT ROMAM/N0446F370 DCT ETIDO DCT NEDRU DCT RILIP DCT EMMEF DCT LAPRI DCT VOLET LIPH |
| Aircraft | A319/M-SDE3FGHIRWY/LB1 |
Departure
| Time | N/A |
|---|---|
| Airport | Bordeaux–Mérignac Airport (LFBD) |
Arrival
| Time | 2026-04-10 13:36 |
|---|---|
| Airport | Treviso Airport (LIPH) |
| Time | Latitude | Longitude | Altitude | Speed | Heading |
|---|---|---|---|---|---|
| 2026-04-10 13:04 | 45.05262 | 7.67792 | 38041 ft | 462 kts | 73° |
| 2026-04-10 13:05 | 45.05816 | 7.71834 | 38042 ft | 462 kts | 73° |
| 2026-04-10 13:05 | 45.07054 | 7.80906 | 38041 ft | 463 kts | 73° |
| 2026-04-10 13:06 | 45.08265 | 7.89839 | 38036 ft | 463 kts | 73° |
| 2026-04-10 13:06 | 45.09471 | 7.98796 | 38027 ft | 463 kts | 73° |
| 2026-04-10 13:07 | 45.10677 | 8.07809 | 38022 ft | 462 kts | 73° |
| 2026-04-10 13:07 | 45.11868 | 8.16762 | 38010 ft | 462 kts | 73° |
| 2026-04-10 13:08 | 45.13078 | 8.25917 | 38004 ft | 461 kts | 73° |
| 2026-04-10 13:08 | 45.14222 | 8.34615 | 37995 ft | 461 kts | 73° |
| 2026-04-10 13:09 | 45.15968 | 8.48018 | 37999 ft | 460 kts | 73° |
| 2026-04-10 13:09 | 45.17148 | 8.57100 | 38006 ft | 477 kts | 73° |
| 2026-04-10 13:10 | 45.18347 | 8.66422 | 38015 ft | 485 kts | 73° |
| 2026-04-10 13:10 | 45.19549 | 8.75887 | 38021 ft | 485 kts | 73° |
| 2026-04-10 13:11 | 45.20733 | 8.85243 | 38018 ft | 485 kts | 73° |
| 2026-04-10 13:11 | 45.21925 | 8.94720 | 38017 ft | 485 kts | 73° |
| 2026-04-10 13:12 | 45.23127 | 9.04349 | 38013 ft | 486 kts | 73° |
| 2026-04-10 13:12 | 45.24283 | 9.13660 | 37994 ft | 487 kts | 73° |
| 2026-04-10 13:13 | 45.25447 | 9.23113 | 38001 ft | 486 kts | 73° |
| 2026-04-10 13:13 | 45.26612 | 9.32646 | 37993 ft | 485 kts | 73° |
| 2026-04-10 13:14 | 45.27174 | 9.37304 | 37919 ft | 472 kts | 73° |
| 2026-04-10 13:14 | 45.27730 | 9.41907 | 37152 ft | 472 kts | 73° |
| 2026-04-10 13:14 | 45.28102 | 9.44955 | 36478 ft | 476 kts | 73° |
| 2026-04-10 13:14 | 45.28665 | 9.49575 | 35415 ft | 482 kts | 74° |
| 2026-04-10 13:15 | 45.29247 | 9.54373 | 34377 ft | 486 kts | 74° |
| 2026-04-10 13:15 | 45.29813 | 9.59091 | 33079 ft | 486 kts | 75° |
| 2026-04-10 13:15 | 45.30382 | 9.63848 | 31880 ft | 492 kts | 75° |
| 2026-04-10 13:15 | 45.30945 | 9.68604 | 31004 ft | 485 kts | 75° |
| 2026-04-10 13:16 | 45.31512 | 9.73427 | 30433 ft | 480 kts | 75° |
| 2026-04-10 13:16 | 45.32064 | 9.78122 | 30157 ft | 480 kts | 75° |
| 2026-04-10 13:16 | 45.32615 | 9.82800 | 29857 ft | 482 kts | 75° |
| 2026-04-10 13:16 | 45.33171 | 9.87544 | 29219 ft | 482 kts | 75° |
| 2026-04-10 13:17 | 45.33717 | 9.92237 | 28585 ft | 477 kts | 75° |
| 2026-04-10 13:17 | 45.34243 | 9.96791 | 27975 ft | 470 kts | 75° |
| 2026-04-10 13:17 | 45.34775 | 10.01415 | 27351 ft | 463 kts | 75° |
| 2026-04-10 13:17 | 45.35291 | 10.05903 | 26746 ft | 457 kts | 75° |
| 2026-04-10 13:18 | 45.35784 | 10.10207 | 26166 ft | 451 kts | 75° |
| 2026-04-10 13:18 | 45.36286 | 10.14600 | 25580 ft | 445 kts | 74° |
| 2026-04-10 13:18 | 45.36776 | 10.18893 | 25000 ft | 440 kts | 74° |
| 2026-04-10 13:18 | 45.37260 | 10.23142 | 24427 ft | 435 kts | 74° |
| 2026-04-10 13:19 | 45.37741 | 10.27389 | 23851 ft | 430 kts | 74° |
| 2026-04-10 13:19 | 45.38213 | 10.31570 | 23225 ft | 426 kts | 74° |
| 2026-04-10 13:19 | 45.38685 | 10.35727 | 22608 ft | 439 kts | 75° |
| 2026-04-10 13:19 | 45.39201 | 10.40162 | 21875 ft | 467 kts | 75° |
| 2026-04-10 13:20 | 45.39721 | 10.44765 | 21222 ft | 466 kts | 76° |
| 2026-04-10 13:20 | 45.40219 | 10.49246 | 20334 ft | 468 kts | 77° |
| 2026-04-10 13:20 | 45.40731 | 10.53839 | 19584 ft | 475 kts | 77° |
| 2026-04-10 13:20 | 45.41225 | 10.58308 | 19007 ft | 469 kts | 77° |
| 2026-04-10 13:21 | 45.41734 | 10.62926 | 18210 ft | 464 kts | 78° |
| 2026-04-10 13:21 | 45.42234 | 10.67479 | 17291 ft | 458 kts | 78° |
| 2026-04-10 13:21 | 45.42720 | 10.71938 | 16388 ft | 451 kts | 78° |
| 2026-04-10 13:21 | 45.43195 | 10.76310 | 15504 ft | 444 kts | 78° |
| 2026-04-10 13:22 | 45.43662 | 10.80635 | 14651 ft | 438 kts | 79° |
| 2026-04-10 13:22 | 45.44119 | 10.84885 | 13787 ft | 432 kts | 79° |
| 2026-04-10 13:22 | 45.44569 | 10.89091 | 12917 ft | 425 kts | 79° |
| 2026-04-10 13:22 | 45.45005 | 10.93182 | 12179 ft | 416 kts | 79° |
| 2026-04-10 13:23 | 45.45437 | 10.97249 | 11699 ft | 413 kts | 79° |
| 2026-04-10 13:23 | 45.45865 | 11.01281 | 11451 ft | 412 kts | 79° |
| 2026-04-10 13:23 | 45.46290 | 11.05297 | 11197 ft | 410 kts | 79° |
| 2026-04-10 13:23 | 45.46673 | 11.08928 | 10997 ft | 408 kts | 79° |
| 2026-04-10 13:24 | 45.47095 | 11.12927 | 10815 ft | 415 kts | 79° |
| 2026-04-10 13:24 | 45.47531 | 11.17067 | 10990 ft | 414 kts | 79° |
| 2026-04-10 13:24 | 45.47953 | 11.21110 | 10976 ft | 413 kts | 79° |
| 2026-04-10 13:24 | 45.48373 | 11.25151 | 10657 ft | 409 kts | 79° |
| 2026-04-10 13:25 | 45.48786 | 11.29126 | 10094 ft | 403 kts | 79° |
| 2026-04-10 13:25 | 45.49190 | 11.33020 | 9495 ft | 386 kts | 79° |
| 2026-04-10 13:25 | 45.49564 | 11.36672 | 9169 ft | 359 kts | 80° |
| 2026-04-10 13:25 | 45.49911 | 11.40083 | 8905 ft | 335 kts | 79° |
| 2026-04-10 13:26 | 45.50231 | 11.43209 | 8691 ft | 314 kts | 80° |
| 2026-04-10 13:26 | 45.50536 | 11.46198 | 8510 ft | 295 kts | 79° |
| 2026-04-10 13:26 | 45.50823 | 11.49006 | 8383 ft | 280 kts | 79° |
| 2026-04-10 13:26 | 45.51104 | 11.51746 | 7937 ft | 283 kts | 80° |
| 2026-04-10 13:27 | 45.51394 | 11.54557 | 7350 ft | 289 kts | 80° |
| 2026-04-10 13:27 | 45.51684 | 11.57403 | 6923 ft | 290 kts | 81° |
| 2026-04-10 13:27 | 45.51972 | 11.60256 | 6579 ft | 288 kts | 81° |
| 2026-04-10 13:27 | 45.52162 | 11.62151 | 6332 ft | 288 kts | 81° |
| 2026-04-10 13:28 | 45.52551 | 11.65984 | 5882 ft | 285 kts | 81° |
| 2026-04-10 13:28 | 45.52838 | 11.68759 | 5584 ft | 282 kts | 81° |
| 2026-04-10 13:28 | 45.53116 | 11.71567 | 5213 ft | 280 kts | 81° |
| 2026-04-10 13:28 | 45.53389 | 11.74311 | 5010 ft | 276 kts | 81° |
| 2026-04-10 13:29 | 45.53733 | 11.76977 | 4988 ft | 269 kts | 75° |
| 2026-04-10 13:29 | 45.54254 | 11.79462 | 4989 ft | 254 kts | 70° |
| 2026-04-10 13:29 | 45.54841 | 11.81739 | 4991 ft | 235 kts | 68° |
| 2026-04-10 13:29 | 45.55230 | 11.83167 | 4994 ft | 222 kts | 69° |
| 2026-04-10 13:30 | 45.55751 | 11.85185 | 4928 ft | 214 kts | 68° |
| 2026-04-10 13:30 | 45.56285 | 11.87168 | 4646 ft | 215 kts | 68° |
| 2026-04-10 13:30 | 45.56803 | 11.89115 | 4345 ft | 217 kts | 68° |
| 2026-04-10 13:30 | 45.57352 | 11.91187 | 4062 ft | 212 kts | 68° |
| 2026-04-10 13:31 | 45.57861 | 11.93088 | 3792 ft | 197 kts | 68° |
| 2026-04-10 13:31 | 45.58330 | 11.94849 | 3521 ft | 183 kts | 69° |
| 2026-04-10 13:31 | 45.58762 | 11.96471 | 3282 ft | 172 kts | 69° |
| 2026-04-10 13:31 | 45.59176 | 11.98038 | 3050 ft | 165 kts | 69° |
| 2026-04-10 13:32 | 45.59574 | 11.99541 | 2843 ft | 159 kts | 70° |
| 2026-04-10 13:32 | 45.59969 | 12.01031 | 2626 ft | 151 kts | 69° |
| 2026-04-10 13:32 | 45.60321 | 12.02350 | 2428 ft | 142 kts | 70° |
| 2026-04-10 13:32 | 45.60655 | 12.03614 | 2252 ft | 129 kts | 70° |
| 2026-04-10 13:33 | 45.60969 | 12.04793 | 2070 ft | 126 kts | 70° |
| 2026-04-10 13:33 | 45.61277 | 12.05950 | 1919 ft | 126 kts | 70° |
| 2026-04-10 13:33 | 45.61584 | 12.07100 | 1734 ft | 121 kts | 71° |
| 2026-04-10 13:33 | 45.61887 | 12.08254 | 1578 ft | 125 kts | 71° |
| 2026-04-10 13:34 | 45.62194 | 12.09405 | 1398 ft | 125 kts | 71° |
| 2026-04-10 13:34 | 45.62501 | 12.10553 | 1206 ft | 123 kts | 70° |
| 2026-04-10 13:34 | 45.62814 | 12.11688 | 1041 ft | 123 kts | 70° |
| 2026-04-10 13:34 | 45.63113 | 12.12834 | 855 ft | 124 kts | 71° |
| 2026-04-10 13:35 | 45.63408 | 12.13983 | 672 ft | 122 kts | 71° |
| 2026-04-10 13:35 | 45.63717 | 12.15129 | 488 ft | 123 kts | 70° |
| 2026-04-10 13:35 | 45.64022 | 12.16258 | 332 ft | 123 kts | 71° |
| 2026-04-10 13:35 | 45.64315 | 12.17382 | 181 ft | 122 kts | 72° |
| 2026-04-10 13:36 | 45.64613 | 12.18514 | 74 ft | 118 kts | 69° |
| 2026-04-10 13:36 | 45.64872 | 12.19489 | 55 ft | 89 kts | 69° |
| 2026-04-10 13:36 | 45.65020 | 12.20036 | 56 ft | 45 kts | 68° |
| 2026-04-10 13:36 | 45.65191 | 12.20261 | 59 ft | 21 kts | 24° |
| 2026-04-10 13:37 | 45.65267 | 12.20303 | 63 ft | 9 kts | 6° |
| 2026-04-10 13:37 | 45.65315 | 12.20281 | 55 ft | 2 kts | 338° |
| 2026-04-10 13:37 | 45.65338 | 12.20268 | 61 ft | 5 kts | 339° |
| 2026-04-10 13:37 | 45.65347 | 12.20263 | 57 ft | 0 kts | 340° |